Lisboa, Portugal

12:35 AM WEST em 28 de Maio de 2015 (GMT +0100)
Lisbon | | Change Station
CLOSE
Current Station
Aeroporto
Location: Lisbon,
Altitude: 404 ft
Estações Meteorológicas Próximas

Elev 404 ft 38.78 °N, 9.14 °W | Updated 35 minutes ago

Clear
Céu Limpo
73 °F
Aparente 73 °F
N
5
Vento Variável Vento de NO

Hoje
Máxima -- | Mínima -- °F
--% Possibilidade de Precip.
Ontem
Máxima -- | Mínima -- °F
Precip. -- pol
6:15 AM 8:52 PM
Lua crescente, 71% visible
Pressão 29.98 pol
Visibilidade -9999.0 milhas
Nuvens
Ponto de Orvalho 43 °F
Humidade 33%
Chuva 0.00 pol
Altura de Neve Não disponível
UV Não disponível
Pólen Não disponível
Qualidade do Ar Não disponível
Flu Activity Não disponível
METAR LPPT 272300Z 31004KT CAVOK 23/06 Q1015

More Conditions Fewer Conditions

Pressão 29.98 pol
Visibilidade -9999.0 milhas
Nuvens
Ponto de Orvalho 43 °F
Humidade 33%
Chuva 0.00 pol
Altura de Neve Não disponível
UV Não disponível
Pólen Não disponível
Qualidade do Ar Não disponível
Flu Activity Não disponível
METAR LPPT 272300Z 31004KT CAVOK 23/06 Q1015

More Conditions Fewer Conditions

10-Day Weather Forecast

Almanac

Astronomia

May. 28, 2015 Nascer Pôr
Hora atual
Crepúsculo civil
Crepúsculo náutico
Crepúsculo astronómico
Lua
Comprimento da luz visível
Duração do Dia
Tomorrow will be .
, % of the Moon is Illuminated

Extremos de Hoje

Altitude na localidade Altura mais baixa na localidade

Community

WunderPhotos

Upload Photos

1,824,821 fotografias inseridas!

WunderBlogs® & News

Nearby

Qualidade do Ar

  Qualidade do Ar Índice da Q.A. Poluente
Not available.

Altura da Neve

Estação altura Altitude

Actividade Sísmisca

Cidade Distância Mag. Hora & Data
Mínima magnitude apresentada é 2.5.

Temperaturas das Águas Costeiras

Local Temperatura

Stations

Estações Meteorológicas Próximas

Localização da Estação Temp. Sensação Térmica Ponto de Orvalho Humidade Vento Precip. Elev Actualizado Tipo